Maersk Iowa — KABL — position and weather

sailwx.info

Track history (hours):
 
Tides and Currents Weather Stations Pressure Air Temp Water Temp Dewpoint Dewpoint Depression Visibility Wind Speed Wind Dir Waves Ship Positions

Maersk Iowa

Owner: FARRELL LINES INC, Norfolk, VA. More information available from US FCC via Universal Licensing System and Coast Guard Vessel Documentation Center.

Last reported at 2015-Apr-14 22:33 UTC. Time now 2015-Apr-21 02:55 UTC.
Position N 27°06' W 079°45'.

Length 292 m; draft 10.8 m.

Type: Ship (hazmat cat A). MMSI: 367606000.

Date/timePositionNaut miles runAvg speedWind from/ knotsBaromVisibWave heightAir tempDewpointWater temp
2015-Apr-14 22:33N 27°06' W 079°45'2019.9
2015-Apr-14 21:33N 26°47' W 079°47'2019.8
2015-Apr-14 20:33N 26°27' W 079°49'2019.8
2015-Apr-14 19:33N 26°07' W 079°51'2120.4
2015-Apr-14 18:33N 25°47' W 079°53'18616.8
2015-Apr-14 07:26N 24°16' W 082°52'71119.7
2015-Apr-12 19:17N 29°26' W 094°50'912.6
2015-Apr-12 18:33N 29°34' W 094°55'8 8.3
2015-Apr-12 17:33N 29°41' W 095°00'0 0.0
2015-Apr-12 16:28N 29°41' W 095°00'0 0.0
2015-Apr-12 15:22N 29°41' W 095°00'0 0.0
2015-Apr-12 14:28N 29°41' W 095°00'0 0.0
2015-Apr-12 13:31N 29°41' W 095°00'0 0.0
2015-Apr-12 12:31N 29°41' W 095°00'0 0.0
2015-Apr-12 11:31N 29°41' W 095°00'0 0.0
2015-Apr-12 10:31N 29°41' W 095°00'0 0.0
2015-Apr-12 09:31N 29°41' W 095°00'0 0.0
2015-Apr-12 08:31N 29°41' W 095°00'0 0.0
2015-Apr-12 07:28N 29°41' W 095°00'0 0.0
2015-Apr-12 06:28N 29°41' W 095°00'0 0.0
2015-Apr-12 05:31N 29°41' W 095°00'0 0.0
2015-Apr-12 04:31N 29°41' W 095°00'0 0.0
2015-Apr-12 03:31N 29°41' W 095°00'0 0.0
2015-Apr-12 02:31N 29°41' W 095°00'0 0.0
2015-Apr-12 01:28N 29°41' W 095°00'0 0.0
2015-Apr-12 00:31N 29°41' W 095°00'0 0.0
2015-Apr-11 23:31N 29°41' W 095°00'0 0.0
2015-Apr-11 22:31N 29°41' W 095°00'0 0.0
2015-Apr-11 21:28N 29°41' W 095°00'0 0.0
2015-Apr-11 20:31N 29°41' W 095°00'0 0.0
2015-Apr-11 19:31N 29°41' W 095°00'0 0.0
2015-Apr-11 18:31N 29°41' W 095°00'0 0.0
2015-Apr-11 17:34N 29°41' W 095°00'0 0.0
2015-Apr-11 16:31N 29°41' W 095°00'0 0.0
2015-Apr-11 15:31N 29°41' W 095°00'0 0.0
2015-Apr-11 14:31N 29°41' W 095°00'0 0.0
2015-Apr-11 13:31N 29°41' W 095°00'0 0.0
2015-Apr-11 12:31N 29°41' W 095°00'0 0.2
2015-Apr-11 11:34N 29°41' W 095°00'7 7.2
2015-Apr-11 10:33N 29°35' W 094°56'1313.2
2015-Apr-11 09:33N 29°23' W 094°49'  
2015-Apr-09 00:33N 25°41' W 080°02'8 0.7
2015-Apr-08 12:28N 25°46' W 080°09'5 5.4
2015-Apr-08 11:34N 25°46' W 080°04'6 6.4
2015-Apr-08 10:33N 25°52' W 080°02'1212.2
2015-Apr-08 09:33N 26°04' W 080°01'1413.8
2015-Apr-08 08:33N 26°18' W 080°00'1514.8
2015-Apr-08 07:33N 26°33' W 079°60'1615.2
2015-Apr-08 06:30N 26°49' W 079°59'1414.9
2015-Apr-08 05:33N 27°03' W 079°59'  
Track history (hours):
 
Tides and Currents Weather Stations Pressure Air Temp Water Temp Dewpoint Dewpoint Depression Visibility Wind Speed Wind Dir Waves Ship Positions

Maersk Iowa

Owner: FARRELL LINES INC, Norfolk, VA. More information available from US FCC via Universal Licensing System and Coast Guard Vessel Documentation Center.

Last reported at 2015-Apr-14 22:33 UTC. Time now 2015-Apr-21 02:55 UTC.
Position N 27°06' W 079°45'.

Length 292 m; draft 10.8 m.

Type: Ship (hazmat cat A). MMSI: 367606000.

Date/timePositionNaut miles runAvg speedWind from/ knotsBaromVisibWave heightAir tempDewpointWater temp
2015-Apr-14 22:33N 27°06' W 079°45'2019.9
2015-Apr-14 21:33N 26°47' W 079°47'2019.8
2015-Apr-14 20:33N 26°27' W 079°49'2019.8
2015-Apr-14 19:33N 26°07' W 079°51'2120.4
2015-Apr-14 18:33N 25°47' W 079°53'18616.8
2015-Apr-14 07:26N 24°16' W 082°52'71119.7
2015-Apr-12 19:17N 29°26' W 094°50'912.6
2015-Apr-12 18:33N 29°34' W 094°55'8 8.3
2015-Apr-12 17:33N 29°41' W 095°00'0 0.0
2015-Apr-12 16:28N 29°41' W 095°00'0 0.0
2015-Apr-12 15:22N 29°41' W 095°00'0 0.0
2015-Apr-12 14:28N 29°41' W 095°00'0 0.0
2015-Apr-12 13:31N 29°41' W 095°00'0 0.0
2015-Apr-12 12:31N 29°41' W 095°00'0 0.0
2015-Apr-12 11:31N 29°41' W 095°00'0 0.0
2015-Apr-12 10:31N 29°41' W 095°00'0 0.0
2015-Apr-12 09:31N 29°41' W 095°00'0 0.0
2015-Apr-12 08:31N 29°41' W 095°00'0 0.0
2015-Apr-12 07:28N 29°41' W 095°00'0 0.0
2015-Apr-12 06:28N 29°41' W 095°00'0 0.0
2015-Apr-12 05:31N 29°41' W 095°00'0 0.0
2015-Apr-12 04:31N 29°41' W 095°00'0 0.0
2015-Apr-12 03:31N 29°41' W 095°00'0 0.0
2015-Apr-12 02:31N 29°41' W 095°00'0 0.0
2015-Apr-12 01:28N 29°41' W 095°00'0 0.0
2015-Apr-12 00:31N 29°41' W 095°00'0 0.0
2015-Apr-11 23:31N 29°41' W 095°00'0 0.0
2015-Apr-11 22:31N 29°41' W 095°00'0 0.0
2015-Apr-11 21:28N 29°41' W 095°00'0 0.0
2015-Apr-11 20:31N 29°41' W 095°00'0 0.0
2015-Apr-11 19:31N 29°41' W 095°00'0 0.0
2015-Apr-11 18:31N 29°41' W 095°00'0 0.0
2015-Apr-11 17:34N 29°41' W 095°00'0 0.0
2015-Apr-11 16:31N 29°41' W 095°00'0 0.0
2015-Apr-11 15:31N 29°41' W 095°00'0 0.0
2015-Apr-11 14:31N 29°41' W 095°00'0 0.0
2015-Apr-11 13:31N 29°41' W 095°00'0 0.0
2015-Apr-11 12:31N 29°41' W 095°00'0 0.2
2015-Apr-11 11:34N 29°41' W 095°00'7 7.2
2015-Apr-11 10:33N 29°35' W 094°56'1313.2
2015-Apr-11 09:33N 29°23' W 094°49'  
2015-Apr-09 00:33N 25°41' W 080°02'8 0.7
2015-Apr-08 12:28N 25°46' W 080°09'5 5.4
2015-Apr-08 11:34N 25°46' W 080°04'6 6.4
2015-Apr-08 10:33N 25°52' W 080°02'1212.2
2015-Apr-08 09:33N 26°04' W 080°01'1413.8
2015-Apr-08 08:33N 26°18' W 080°00'1514.8
2015-Apr-08 07:33N 26°33' W 079°60'1615.2
2015-Apr-08 06:30N 26°49' W 079°59'1414.9
2015-Apr-08 05:33N 27°03' W 079°59'  

Dump ship's entire track history